AFR3A LFBD-LFPG
Flight info
| Callsign | AFR3A |
|---|---|
| Flight time | 0h 52m |
| Altitude | 30000 |
| Route | CNA DCT POI DCT PEPAX UT182 NIMER/N0390F280 UT182 KEPER |
| Aircraft | A320/M-SDE3FGHIRWY/LB1 |
Departure
| Time | 2026-05-08 20:59 |
|---|---|
| Airport | Bordeaux–Mérignac Airport (LFBD) |
Arrival
| Time | 2026-05-08 21:51 |
|---|---|
| Airport | Charles de Gaulle International Airport (LFPG) |
| Time | Latitude | Longitude | Altitude | Speed | Heading |
|---|---|---|---|---|---|
| 2026-05-08 20:59 | 45.05127 | -0.67150 | 10541 ft | 331 kts | 43° |
| 2026-05-08 20:59 | 45.06884 | -0.64930 | 11117 ft | 343 kts | 43° |
| 2026-05-08 20:59 | 45.08656 | -0.62700 | 11861 ft | 348 kts | 43° |
| 2026-05-08 21:00 | 45.10477 | -0.60407 | 12651 ft | 352 kts | 43° |
| 2026-05-08 21:00 | 45.12316 | -0.58082 | 13424 ft | 357 kts | 43° |
| 2026-05-08 21:00 | 45.14269 | -0.55879 | 14124 ft | 362 kts | 34° |
| 2026-05-08 21:00 | 45.16510 | -0.54210 | 14787 ft | 367 kts | 21° |
| 2026-05-08 21:01 | 45.18941 | -0.53052 | 15461 ft | 370 kts | 18° |
| 2026-05-08 21:01 | 45.21405 | -0.51927 | 16133 ft | 374 kts | 18° |
| 2026-05-08 21:01 | 45.23895 | -0.50786 | 16813 ft | 378 kts | 18° |
| 2026-05-08 21:01 | 45.26411 | -0.49625 | 17473 ft | 382 kts | 18° |
| 2026-05-08 21:02 | 45.28949 | -0.48449 | 18129 ft | 386 kts | 18° |
| 2026-05-08 21:02 | 45.31517 | -0.47259 | 18712 ft | 389 kts | 18° |
| 2026-05-08 21:02 | 45.34099 | -0.46057 | 19288 ft | 392 kts | 19° |
| 2026-05-08 21:02 | 45.36668 | -0.44860 | 19855 ft | 395 kts | 19° |
| 2026-05-08 21:03 | 45.39293 | -0.43638 | 20423 ft | 399 kts | 19° |
| 2026-05-08 21:03 | 45.41936 | -0.42408 | 20984 ft | 402 kts | 19° |
| 2026-05-08 21:03 | 45.44601 | -0.41165 | 21530 ft | 404 kts | 19° |
| 2026-05-08 21:03 | 45.47284 | -0.39910 | 22086 ft | 407 kts | 20° |
| 2026-05-08 21:04 | 45.49988 | -0.38643 | 22622 ft | 410 kts | 20° |
| 2026-05-08 21:04 | 45.52708 | -0.37371 | 23159 ft | 413 kts | 20° |
| 2026-05-08 21:04 | 45.55451 | -0.36091 | 23653 ft | 416 kts | 20° |
| 2026-05-08 21:04 | 45.58210 | -0.34800 | 24079 ft | 419 kts | 20° |
| 2026-05-08 21:05 | 45.60993 | -0.33496 | 24475 ft | 422 kts | 20° |
| 2026-05-08 21:05 | 45.63791 | -0.32185 | 24906 ft | 425 kts | 20° |
| 2026-05-08 21:05 | 45.66580 | -0.30768 | 25316 ft | 426 kts | 26° |
| 2026-05-08 21:05 | 45.69284 | -0.29016 | 25729 ft | 428 kts | 27° |
| 2026-05-08 21:06 | 45.71998 | -0.27244 | 26148 ft | 430 kts | 27° |
| 2026-05-08 21:06 | 45.74725 | -0.25463 | 26549 ft | 432 kts | 27° |
| 2026-05-08 21:06 | 45.77470 | -0.23669 | 26959 ft | 434 kts | 27° |
| 2026-05-08 21:06 | 45.80229 | -0.21867 | 27359 ft | 437 kts | 27° |
| 2026-05-08 21:07 | 45.83001 | -0.20055 | 27769 ft | 439 kts | 28° |
| 2026-05-08 21:07 | 45.85788 | -0.18230 | 28160 ft | 441 kts | 28° |
| 2026-05-08 21:07 | 45.88587 | -0.16394 | 28552 ft | 444 kts | 28° |
| 2026-05-08 21:07 | 45.91400 | -0.14543 | 28935 ft | 446 kts | 28° |
| 2026-05-08 21:08 | 45.94226 | -0.12685 | 29314 ft | 448 kts | 28° |
| 2026-05-08 21:08 | 45.97029 | -0.10842 | 29692 ft | 450 kts | 28° |
| 2026-05-08 21:08 | 45.99888 | -0.08960 | 29907 ft | 452 kts | 28° |
| 2026-05-08 21:08 | 46.02711 | -0.07105 | 29962 ft | 437 kts | 28° |
| 2026-05-08 21:09 | 46.05438 | -0.05320 | 29945 ft | 426 kts | 28° |
| 2026-05-08 21:09 | 46.10791 | -0.01801 | 29948 ft | 421 kts | 28° |
| 2026-05-08 21:10 | 46.16101 | 0.01724 | 29959 ft | 420 kts | 28° |
| 2026-05-08 21:10 | 46.21404 | 0.05252 | 29609 ft | 419 kts | 26° |
| 2026-05-08 21:10 | 46.24059 | 0.07018 | 29965 ft | 420 kts | 28° |
| 2026-05-08 21:11 | 46.26713 | 0.08785 | 29961 ft | 420 kts | 28° |
| 2026-05-08 21:11 | 46.32013 | 0.12321 | 29964 ft | 419 kts | 28° |
| 2026-05-08 21:12 | 46.37283 | 0.15832 | 29965 ft | 419 kts | 28° |
| 2026-05-08 21:12 | 46.42570 | 0.19365 | 29993 ft | 418 kts | 28° |
| 2026-05-08 21:13 | 46.47838 | 0.22901 | 29999 ft | 417 kts | 28° |
| 2026-05-08 21:13 | 46.53102 | 0.26445 | 29996 ft | 417 kts | 28° |
| 2026-05-08 21:14 | 46.58426 | 0.29803 | 29989 ft | 420 kts | 20° |
| 2026-05-08 21:14 | 46.64146 | 0.31680 | 29987 ft | 422 kts | 15° |
| 2026-05-08 21:15 | 46.69895 | 0.33427 | 29981 ft | 422 kts | 15° |
| 2026-05-08 21:15 | 46.75639 | 0.35189 | 29978 ft | 422 kts | 15° |
| 2026-05-08 21:16 | 46.81383 | 0.36962 | 29980 ft | 422 kts | 15° |
| 2026-05-08 21:16 | 46.87088 | 0.38723 | 29975 ft | 422 kts | 15° |
| 2026-05-08 21:17 | 46.92832 | 0.40492 | 29970 ft | 422 kts | 15° |
| 2026-05-08 21:17 | 46.98574 | 0.42259 | 29961 ft | 421 kts | 14° |
| 2026-05-08 21:18 | 47.04298 | 0.44036 | 29980 ft | 420 kts | 15° |
| 2026-05-08 21:18 | 47.10127 | 0.44705 | 29987 ft | 424 kts | 356° |
| 2026-05-08 21:19 | 47.15965 | 0.43355 | 29990 ft | 425 kts | 352° |
| 2026-05-08 21:19 | 47.21792 | 0.41931 | 30002 ft | 424 kts | 352° |
| 2026-05-08 21:20 | 47.27605 | 0.40515 | 30016 ft | 423 kts | 352° |
| 2026-05-08 21:20 | 47.33421 | 0.39097 | 30001 ft | 424 kts | 352° |
| 2026-05-08 21:21 | 47.39243 | 0.37670 | 29995 ft | 424 kts | 352° |
| 2026-05-08 21:21 | 47.45059 | 0.36234 | 29856 ft | 421 kts | 352° |
| 2026-05-08 21:21 | 47.47923 | 0.35526 | 29421 ft | 415 kts | 352° |
| 2026-05-08 21:22 | 47.50753 | 0.34827 | 28951 ft | 410 kts | 352° |
| 2026-05-08 21:22 | 47.53554 | 0.34136 | 28499 ft | 405 kts | 352° |
| 2026-05-08 21:22 | 47.56320 | 0.33453 | 28058 ft | 401 kts | 352° |
| 2026-05-08 21:22 | 47.59021 | 0.32783 | 27621 ft | 397 kts | 352° |
| 2026-05-08 21:23 | 47.61730 | 0.32110 | 27186 ft | 393 kts | 352° |
| 2026-05-08 21:23 | 47.64410 | 0.31440 | 26756 ft | 389 kts | 351° |
| 2026-05-08 21:23 | 47.67073 | 0.30773 | 26325 ft | 386 kts | 351° |
| 2026-05-08 21:23 | 47.69708 | 0.30114 | 25892 ft | 383 kts | 351° |
| 2026-05-08 21:24 | 47.72332 | 0.29460 | 25446 ft | 381 kts | 352° |
| 2026-05-08 21:24 | 47.74941 | 0.28815 | 24999 ft | 379 kts | 351° |
| 2026-05-08 21:24 | 47.77556 | 0.28411 | 24522 ft | 377 kts | 2° |
| 2026-05-08 21:24 | 47.80150 | 0.28789 | 24073 ft | 373 kts | 14° |
| 2026-05-08 21:25 | 47.82607 | 0.29953 | 23759 ft | 372 kts | 26° |
| 2026-05-08 21:25 | 47.84861 | 0.31824 | 23460 ft | 371 kts | 37° |
| 2026-05-08 21:25 | 47.86976 | 0.34029 | 23144 ft | 370 kts | 37° |
| 2026-05-08 21:25 | 47.89080 | 0.36229 | 22862 ft | 369 kts | 37° |
| 2026-05-08 21:26 | 47.91177 | 0.38427 | 22571 ft | 368 kts | 37° |
| 2026-05-08 21:26 | 47.93268 | 0.40621 | 22281 ft | 366 kts | 37° |
| 2026-05-08 21:26 | 47.95347 | 0.42804 | 21987 ft | 365 kts | 37° |
| 2026-05-08 21:26 | 47.97416 | 0.44973 | 21714 ft | 363 kts | 36° |
| 2026-05-08 21:27 | 47.99477 | 0.47133 | 21436 ft | 361 kts | 36° |
| 2026-05-08 21:27 | 48.01531 | 0.49288 | 21156 ft | 360 kts | 36° |
| 2026-05-08 21:27 | 48.03574 | 0.51438 | 20877 ft | 359 kts | 36° |
| 2026-05-08 21:27 | 48.05580 | 0.53554 | 20603 ft | 358 kts | 36° |
| 2026-05-08 21:28 | 48.07609 | 0.55699 | 20326 ft | 356 kts | 36° |
| 2026-05-08 21:28 | 48.09630 | 0.57831 | 20051 ft | 355 kts | 36° |
| 2026-05-08 21:28 | 48.11648 | 0.59962 | 19778 ft | 354 kts | 36° |
| 2026-05-08 21:28 | 48.13659 | 0.62087 | 19493 ft | 353 kts | 36° |
| 2026-05-08 21:29 | 48.15663 | 0.64209 | 19225 ft | 352 kts | 36° |
| 2026-05-08 21:29 | 48.17660 | 0.66327 | 18963 ft | 351 kts | 36° |
| 2026-05-08 21:29 | 48.19653 | 0.68442 | 18700 ft | 350 kts | 36° |
| 2026-05-08 21:29 | 48.21640 | 0.70550 | 18418 ft | 349 kts | 35° |
| 2026-05-08 21:30 | 48.23621 | 0.72654 | 18131 ft | 348 kts | 35° |
| 2026-05-08 21:30 | 48.25588 | 0.74747 | 17851 ft | 346 kts | 35° |
| 2026-05-08 21:30 | 48.27544 | 0.76831 | 17592 ft | 344 kts | 35° |
| 2026-05-08 21:30 | 48.29490 | 0.78902 | 17332 ft | 342 kts | 35° |
| 2026-05-08 21:31 | 48.31429 | 0.80964 | 17068 ft | 340 kts | 35° |
| 2026-05-08 21:31 | 48.33337 | 0.83069 | 16797 ft | 339 kts | 40° |
| 2026-05-08 21:31 | 48.34925 | 0.85593 | 16540 ft | 337 kts | 53° |
| 2026-05-08 21:31 | 48.36130 | 0.88603 | 16280 ft | 336 kts | 63° |
| 2026-05-08 21:32 | 48.37199 | 0.91726 | 16014 ft | 335 kts | 63° |
| 2026-05-08 21:32 | 48.38270 | 0.94830 | 15758 ft | 334 kts | 62° |
| 2026-05-08 21:32 | 48.39340 | 0.97919 | 15503 ft | 332 kts | 62° |
| 2026-05-08 21:32 | 48.40408 | 1.00995 | 15245 ft | 331 kts | 62° |
| 2026-05-08 21:33 | 48.41471 | 1.04055 | 14979 ft | 329 kts | 62° |
| 2026-05-08 21:33 | 48.42527 | 1.07103 | 14657 ft | 328 kts | 62° |
| 2026-05-08 21:33 | 48.43574 | 1.10143 | 14357 ft | 326 kts | 62° |
| 2026-05-08 21:33 | 48.44614 | 1.13171 | 14050 ft | 325 kts | 62° |
| 2026-05-08 21:34 | 48.45651 | 1.16182 | 13732 ft | 323 kts | 62° |
| 2026-05-08 21:34 | 48.46681 | 1.19179 | 13419 ft | 321 kts | 62° |
| 2026-05-08 21:34 | 48.47702 | 1.22156 | 13133 ft | 318 kts | 62° |
| 2026-05-08 21:34 | 48.48374 | 1.24121 | 13047 ft | 318 kts | 62° |
| 2026-05-08 21:35 | 48.49383 | 1.27080 | 13056 ft | 318 kts | 62° |
| 2026-05-08 21:35 | 48.50393 | 1.30044 | 13055 ft | 318 kts | 62° |
| 2026-05-08 21:35 | 48.51408 | 1.33006 | 13059 ft | 318 kts | 62° |
| 2026-05-08 21:35 | 48.52424 | 1.35966 | 13060 ft | 318 kts | 62° |
| 2026-05-08 21:36 | 48.53440 | 1.38927 | 13059 ft | 318 kts | 62° |
| 2026-05-08 21:36 | 48.54441 | 1.41906 | 13059 ft | 318 kts | 63° |
| 2026-05-08 21:36 | 48.55424 | 1.44893 | 13060 ft | 318 kts | 63° |
| 2026-05-08 21:36 | 48.56405 | 1.47886 | 13063 ft | 318 kts | 64° |
| 2026-05-08 21:37 | 48.57093 | 1.51042 | 13059 ft | 316 kts | 77° |
| 2026-05-08 21:37 | 48.57835 | 1.54086 | 12795 ft | 311 kts | 54° |
| 2026-05-08 21:37 | 48.59412 | 1.56209 | 12539 ft | 304 kts | 23° |
| 2026-05-08 21:37 | 48.61438 | 1.56787 | 12280 ft | 297 kts | 351° |
| 2026-05-08 21:38 | 48.63314 | 1.55693 | 12027 ft | 290 kts | 319° |
| 2026-05-08 21:38 | 48.64665 | 1.53433 | 11542 ft | 293 kts | 308° |
| 2026-05-08 21:38 | 48.66225 | 1.51418 | 10913 ft | 303 kts | 334° |
| 2026-05-08 21:38 | 48.68308 | 1.50844 | 10297 ft | 312 kts | 5° |
| 2026-05-08 21:39 | 48.70352 | 1.51968 | 9663 ft | 320 kts | 35° |
| 2026-05-08 21:39 | 48.71799 | 1.54525 | 9001 ft | 326 kts | 63° |
| 2026-05-08 21:39 | 48.72756 | 1.57635 | 8441 ft | 326 kts | 60° |
| 2026-05-08 21:39 | 48.73922 | 1.60541 | 8056 ft | 320 kts | 57° |
| 2026-05-08 21:40 | 48.75108 | 1.63361 | 7676 ft | 315 kts | 57° |
| 2026-05-08 21:40 | 48.76280 | 1.66139 | 7301 ft | 310 kts | 57° |
| 2026-05-08 21:40 | 48.77437 | 1.68879 | 6932 ft | 306 kts | 57° |
| 2026-05-08 21:41 | 48.79658 | 1.74107 | 6172 ft | 282 kts | 57° |
| 2026-05-08 21:41 | 48.80712 | 1.76564 | 5783 ft | 276 kts | 57° |
| 2026-05-08 21:41 | 48.81746 | 1.78959 | 5428 ft | 274 kts | 57° |
| 2026-05-08 21:41 | 48.82807 | 1.81384 | 5092 ft | 270 kts | 57° |
| 2026-05-08 21:42 | 48.83841 | 1.83735 | 4997 ft | 267 kts | 57° |
| 2026-05-08 21:42 | 48.84861 | 1.86043 | 5002 ft | 267 kts | 57° |
| 2026-05-08 21:42 | 48.85897 | 1.88384 | 5007 ft | 267 kts | 57° |
| 2026-05-08 21:42 | 48.86929 | 1.90731 | 5007 ft | 267 kts | 57° |
| 2026-05-08 21:43 | 48.87964 | 1.93075 | 5005 ft | 267 kts | 57° |
| 2026-05-08 21:43 | 48.88998 | 1.95413 | 5008 ft | 265 kts | 57° |
| 2026-05-08 21:43 | 48.89990 | 1.97665 | 5006 ft | 253 kts | 57° |
| 2026-05-08 21:43 | 48.90976 | 1.99897 | 5009 ft | 255 kts | 57° |
| 2026-05-08 21:44 | 48.91970 | 2.02138 | 5010 ft | 256 kts | 57° |
| 2026-05-08 21:44 | 48.92963 | 2.04394 | 5010 ft | 257 kts | 57° |
| 2026-05-08 21:44 | 48.93956 | 2.06648 | 5010 ft | 256 kts | 57° |
| 2026-05-08 21:44 | 48.94950 | 2.08902 | 5012 ft | 256 kts | 57° |
| 2026-05-08 21:45 | 48.95926 | 2.11124 | 5008 ft | 245 kts | 57° |
| 2026-05-08 21:45 | 48.96776 | 2.13252 | 5004 ft | 227 kts | 71° |
| 2026-05-08 21:45 | 48.97016 | 2.15527 | 5009 ft | 211 kts | 86° |
| 2026-05-08 21:45 | 48.97133 | 2.17676 | 5022 ft | 196 kts | 85° |
| 2026-05-08 21:46 | 48.97247 | 2.19719 | 5017 ft | 192 kts | 86° |
| 2026-05-08 21:46 | 48.97361 | 2.21743 | 4841 ft | 195 kts | 86° |
| 2026-05-08 21:46 | 48.97477 | 2.23774 | 4580 ft | 190 kts | 86° |
| 2026-05-08 21:46 | 48.97589 | 2.25754 | 4319 ft | 187 kts | 85° |
| 2026-05-08 21:47 | 48.97700 | 2.27721 | 4072 ft | 186 kts | 85° |
| 2026-05-08 21:47 | 48.97810 | 2.29665 | 3826 ft | 184 kts | 86° |
| 2026-05-08 21:47 | 48.97918 | 2.31599 | 3581 ft | 182 kts | 86° |
| 2026-05-08 21:47 | 48.98025 | 2.33516 | 3344 ft | 182 kts | 85° |
| 2026-05-08 21:48 | 48.98132 | 2.35425 | 3095 ft | 181 kts | 85° |
| 2026-05-08 21:48 | 48.98237 | 2.37319 | 2859 ft | 179 kts | 85° |
| 2026-05-08 21:48 | 48.98342 | 2.39202 | 2621 ft | 178 kts | 85° |
| 2026-05-08 21:48 | 48.98445 | 2.41072 | 2382 ft | 176 kts | 85° |
| 2026-05-08 21:49 | 48.98548 | 2.42929 | 2145 ft | 175 kts | 85° |
| 2026-05-08 21:49 | 48.98649 | 2.44767 | 1910 ft | 173 kts | 85° |
| 2026-05-08 21:49 | 48.98748 | 2.46572 | 1674 ft | 167 kts | 85° |
| 2026-05-08 21:49 | 48.98842 | 2.48288 | 1454 ft | 158 kts | 85° |
| 2026-05-08 21:50 | 48.98930 | 2.49902 | 1261 ft | 146 kts | 85° |
| 2026-05-08 21:50 | 48.99011 | 2.51395 | 1056 ft | 142 kts | 84° |
| 2026-05-08 21:50 | 48.99093 | 2.52911 | 859 ft | 142 kts | 84° |
| 2026-05-08 21:50 | 48.99178 | 2.54397 | 669 ft | 140 kts | 83° |
| 2026-05-08 21:51 | 48.99255 | 2.55849 | 513 ft | 139 kts | 84° |
| 2026-05-08 21:51 | 48.99330 | 2.57313 | 370 ft | 138 kts | 84° |
| 2026-05-08 21:51 | 48.99404 | 2.58585 | 353 ft | 96 kts | 86° |
| 2026-05-08 21:51 | 48.99440 | 2.59339 | 358 ft | 47 kts | 85° |
| 2026-05-08 21:52 | 48.99459 | 2.59650 | 355 ft | 28 kts | 82° |
| 2026-05-08 21:52 | 48.99532 | 2.59940 | 358 ft | 30 kts | 43° |
| 2026-05-08 21:52 | 48.99651 | 2.59982 | 357 ft | 18 kts | 3° |
| 2026-05-08 21:52 | 48.99775 | 2.59969 | 355 ft | 20 kts | 348° |
| 2026-05-08 21:53 | 48.99884 | 2.59978 | 357 ft | 9 kts | 28° |
| 2026-05-08 21:53 | 48.99905 | 2.59999 | 361 ft | 0 kts | 35° |
| 2026-05-08 21:54 | 48.99927 | 2.60023 | 358 ft | 13 kts | 37° |
| 2026-05-08 21:54 | 49.00022 | 2.60027 | 357 ft | 19 kts | 321° |
| 2026-05-08 21:55 | 49.00093 | 2.59890 | 354 ft | 18 kts | 275° |
| 2026-05-08 21:55 | 49.00167 | 2.59783 | 362 ft | 15 kts | 333° |
| 2026-05-08 21:55 | 49.00214 | 2.59633 | 361 ft | 18 kts | 324° |
| 2026-05-08 21:56 | 49.00408 | 2.59454 | 354 ft | 25 kts | 358° |
| 2026-05-08 21:56 | 49.00564 | 2.59448 | 354 ft | 23 kts | 355° |
| 2026-05-08 21:56 | 49.00752 | 2.59417 | 355 ft | 25 kts | 356° |
| 2026-05-08 21:56 | 49.00822 | 2.59293 | 357 ft | 18 kts | 323° |
| 2026-05-08 21:57 | 49.00872 | 2.59095 | 357 ft | 26 kts | 263° |
| 2026-05-08 21:57 | 49.00861 | 2.58831 | 354 ft | 28 kts | 268° |
| 2026-05-08 21:57 | 49.00841 | 2.58561 | 357 ft | 30 kts | 266° |
| 2026-05-08 21:57 | 49.00846 | 2.58282 | 364 ft | 26 kts | 302° |
| 2026-05-08 21:58 | 49.00904 | 2.58100 | 355 ft | 23 kts | 256° |
| 2026-05-08 21:58 | 49.00895 | 2.57863 | 363 ft | 16 kts | 265° |
| 2026-05-08 21:58 | 49.00844 | 2.57739 | 354 ft | 9 kts | 199° |
| 2026-05-08 21:58 | 49.00799 | 2.57679 | 354 ft | 16 kts | 257° |
| 2026-05-08 21:59 | 49.00793 | 2.57470 | 359 ft | 21 kts | 266° |
| 2026-05-08 21:59 | 49.00758 | 2.57269 | 361 ft | 19 kts | 229° |
| 2026-05-08 21:59 | 49.00663 | 2.57229 | 361 ft | 15 kts | 174° |
| 2026-05-08 21:59 | 49.00613 | 2.57276 | 354 ft | 7 kts | 101° |
| 2026-05-08 22:00 | 49.00617 | 2.57315 | 354 ft | 0 kts | 65° |
| 2026-05-08 22:00 | 49.00618 | 2.57330 | 354 ft | 1 kts | 84° |
| 2026-05-08 22:00 | 49.00618 | 2.57335 | 361 ft | 0 kts | 85° |